Time;durP1;ratioP1;P1;durP2;ratioP2;P2;SDS_P1;SDS_P2;PMS_P1;PMS_P2;Temp;Humidity;BMP_temperature;BMP_pressure;BME280_temperature;BME280_humidity;BME280_pressure;Samples;Min_cycle;Max_cycle;Signal;HPM_P1;HPM_P2
2022/05/18 00:01:10;;;;;;;6.13;3.25;;;;;;;-145.45;100.00;62759.84;5334347;27;20051;-80
2022/05/18 00:03:44;;;;;;;6.00;3.30;;;;;;;-145.45;100.00;62759.84;5338295;27;20020;-80
2022/05/18 00:06:15;;;;;;;5.93;3.60;;;;;;;-145.45;100.00;62759.84;5333954;27;20028;-80
2022/05/18 00:08:47;;;;;;;6.95;3.28;;;;;;;-145.45;100.00;62759.84;5324268;27;20162;-80
2022/05/18 00:11:19;;;;;;;9.00;3.83;;;;;;;-145.45;100.00;62759.84;5311899;28;20035;-80
2022/05/18 00:13:54;;;;;;;6.25;3.33;;;;;;;-145.45;100.00;62759.84;5312311;28;20016;-80
2022/05/18 00:16:26;;;;;;;7.28;3.45;;;;;;;-145.45;100.00;62759.84;5314476;28;20029;-80
2022/05/18 00:18:57;;;;;;;7.32;3.72;;;;;;;-145.45;100.00;62759.84;5314242;28;20047;-80
2022/05/18 00:21:30;;;;;;;6.93;3.90;;;;;;;-145.45;100.00;62759.84;5313019;28;20579;-79
2022/05/18 00:24:03;;;;;;;5.05;3.85;;;;;;;-145.45;100.00;62759.84;5316337;28;21241;-80
2022/05/18 00:26:35;;;;;;;6.70;4.32;;;;;;;-145.45;100.00;62759.84;5315686;28;20073;-79
2022/05/18 00:29:06;;;;;;;6.32;4.18;;;;;;;-145.45;100.00;62759.84;5298339;28;20032;-79
2022/05/18 00:31:38;;;;;;;8.50;4.43;;;;;;;-145.45;100.00;62759.84;5315052;28;20036;-79
2022/05/18 00:34:09;;;;;;;7.45;3.65;;;;;;;-145.45;100.00;62759.84;5315717;28;20042;-79
2022/05/18 00:36:40;;;;;;;9.13;3.58;;;;;;;-145.45;100.00;62759.84;5295938;28;20020;-80
2022/05/18 00:39:12;;;;;;;7.28;4.20;;;;;;;-145.45;100.00;62759.84;5315152;28;20696;-80
2022/05/18 00:41:43;;;;;;;9.60;5.05;;;;;;;-145.45;100.00;62759.84;5314617;28;20081;-80
2022/05/18 00:44:14;;;;;;;7.72;4.57;;;;;;;-145.45;100.00;62759.84;5299998;28;20568;-80
2022/05/18 00:46:46;;;;;;;7.13;4.25;;;;;;;-145.45;100.00;62759.84;5296555;28;20381;-80
2022/05/18 00:49:17;;;;;;;7.05;4.15;;;;;;;-145.45;100.00;62759.84;5313386;28;20480;-80
2022/05/18 00:51:53;;;;;;;8.23;3.97;;;;;;;-145.45;100.00;62759.84;5300164;28;20036;-80
2022/05/18 00:54:27;;;;;;;;;;;;;;;-145.45;100.00;62759.84;5315381;28;20024;-79
2022/05/18 00:57:08;;;;;;;6.55;3.63;;;;;;;-145.45;100.00;62759.84;5313283;28;19942;-79
2022/05/18 00:59:54;;;;;;;7.38;4.45;;;;;;;-145.45;100.00;62759.84;5314993;28;20043;-79
2022/05/18 01:02:30;;;;;;;10.48;4.82;;;;;;;-145.45;100.00;62759.84;5314098;28;20040;-79
2022/05/18 01:05:04;;;;;;;4.93;4.07;;;;;;;-145.45;100.00;62759.84;5296066;28;20028;-80
2022/05/18 01:07:45;;;;;;;9.50;4.20;;;;;;;-145.45;100.00;62759.84;5312457;28;20864;-80
2022/05/18 01:10:16;;;;;;;10.82;5.15;;;;;;;-145.45;100.00;62759.84;5314428;28;20028;-79
2022/05/18 01:12:48;;;;;;;8.38;4.10;;;;;;;-145.45;100.00;62759.84;5314561;28;20036;-80
2022/05/18 01:15:21;;;;;;;9.38;4.97;;;;;;;-145.45;100.00;62759.84;5314048;28;20602;-79
2022/05/18 01:17:58;;;;;;;5.50;4.00;;;;;;;-145.45;100.00;62759.84;5312429;28;20118;-79
2022/05/18 01:20:35;;;;;;;10.50;4.93;;;;;;;-145.45;100.00;62759.84;5313489;28;20103;-79
2022/05/18 01:23:49;;;;;;;8.43;4.70;;;;;;;-145.45;100.00;62759.84;5294029;28;20072;-80
2022/05/18 01:26:49;;;;;;;7.70;4.18;;;;;;;-145.45;100.00;62759.84;5312019;28;20025;-80
2022/05/18 01:29:22;;;;;;;8.98;4.72;;;;;;;-145.45;100.00;62759.84;5314130;28;20058;-80
2022/05/18 01:32:03;;;;;;;7.75;4.38;;;;;;;-145.45;100.00;62759.84;5315191;28;20082;-80
2022/05/18 01:34:35;;;;;;;4.68;3.90;;;;;;;-145.45;100.00;62759.84;5313130;28;20392;-79
2022/05/18 01:37:06;;;;;;;8.60;4.55;;;;;;;-145.45;100.00;62759.84;5293369;28;20020;-79
2022/05/18 01:39:47;;;;;;;8.50;5.18;;;;;;;-145.45;100.00;62759.84;5313313;28;20121;-79
2022/05/18 01:42:27;;;;;;;6.53;4.43;;;;;;;-145.45;100.00;62759.84;5313418;28;20025;-79
2022/05/18 01:44:59;;;;;;;9.18;5.57;;;;;;;-145.45;100.00;62759.84;5313805;28;20111;-80
2022/05/18 01:47:34;;;;;;;9.68;5.50;;;;;;;-145.45;100.00;62759.84;5314085;28;20035;-79
2022/05/18 01:50:10;;;;;;;13.32;5.60;;;;;;;-145.45;100.00;62759.84;5314666;28;20032;-79
2022/05/18 01:52:41;;;;;;;12.20;6.47;;;;;;;-145.45;100.00;62759.84;5312257;28;20094;-79
2022/05/18 01:55:17;;;;;;;14.02;6.40;;;;;;;-145.45;100.00;62759.84;5312358;28;20099;-79
2022/05/18 01:57:48;;;;;;;10.40;6.60;;;;;;;-145.45;100.00;62759.84;5312035;27;20028;-79
2022/05/18 02:00:20;;;;;;;12.18;6.70;;;;;;;-145.45;100.00;62759.84;5295168;28;20024;-79
2022/05/18 02:02:51;;;;;;;10.77;5.22;;;;;;;-145.45;100.00;62759.84;5311793;28;20533;-79
2022/05/18 02:05:23;;;;;;;11.25;5.05;;;;;;;-145.45;100.00;62759.84;5290592;28;20553;-79
2022/05/18 02:07:57;;;;;;;10.57;6.43;;;;;;;-145.45;100.00;62759.84;5308203;27;20094;-79
2022/05/18 02:10:28;;;;;;;8.15;6.18;;;;;;;-145.45;100.00;62759.84;5294297;28;20028;-79
2022/05/18 02:13:00;;;;;;;8.00;5.55;;;;;;;-145.45;100.00;62759.84;5312810;28;20483;-80
2022/05/18 02:15:31;;;;;;;8.57;5.13;;;;;;;-145.45;100.00;62759.84;5311327;28;20433;-80
2022/05/18 02:18:02;;;;;;;7.82;4.93;;;;;;;-145.45;100.00;62759.84;5316199;28;20506;-80
2022/05/18 02:20:34;;;;;;;6.72;5.00;;;;;;;-145.45;100.00;62759.84;5309828;28;20469;-79
2022/05/18 02:23:06;;;;;;;9.48;5.30;;;;;;;-145.45;100.00;62759.84;5311090;28;20029;-79
2022/05/18 02:25:38;;;;;;;8.05;4.80;;;;;;;-145.45;100.00;62759.84;5311740;28;20035;-79
2022/05/18 02:28:09;;;;;;;7.65;4.97;;;;;;;-145.45;100.00;62759.84;5294930;28;20372;-79
2022/05/18 02:30:40;;;;;;;13.93;7.30;;;;;;;-145.45;100.00;62759.84;5292520;28;20028;-80
2022/05/18 02:33:11;;;;;;;9.98;6.20;;;;;;;-145.45;100.00;62759.84;5293866;28;20115;-79
2022/05/18 02:35:43;;;;;;;9.35;5.35;;;;;;;-145.45;100.00;62759.84;5310572;28;20115;-79
2022/05/18 02:38:14;;;;;;;6.30;5.32;;;;;;;-145.45;100.00;62759.84;5310079;28;20035;-79
2022/05/18 02:40:45;;;;;;;9.40;5.15;;;;;;;-145.45;100.00;62759.84;5316337;28;20024;-79
2022/05/18 02:43:16;;;;;;;9.15;5.65;;;;;;;-145.45;100.00;62759.84;5312573;28;20582;-79
2022/05/18 02:45:49;;;;;;;9.63;5.85;;;;;;;-145.45;100.00;62759.84;5311187;28;20021;-79
2022/05/18 02:48:20;;;;;;;6.80;5.30;;;;;;;-145.45;100.00;62759.84;5311737;28;20788;-79
2022/05/18 02:50:51;;;;;;;6.28;4.95;;;;;;;-145.45;100.00;62759.84;5289285;28;20119;-79
2022/05/18 02:53:23;;;;;;;7.63;5.75;;;;;;;-145.45;100.00;62759.84;5314745;28;20115;-79
2022/05/18 02:56:06;;;;;;;6.68;5.68;;;;;;;-145.45;100.00;62759.84;5314324;28;20141;-79
2022/05/18 02:58:48;;;;;;;11.65;6.93;;;;;;;-145.45;100.00;62759.84;5311412;28;20031;-79
2022/05/18 03:01:21;;;;;;;8.15;6.35;;;;;;;-145.45;100.00;62759.84;5312180;28;20103;-79
2022/05/18 03:03:54;;;;;;;10.27;6.88;;;;;;;-145.45;100.00;62759.84;5309613;28;20024;-79
2022/05/18 03:06:25;;;;;;;8.70;7.50;;;;;;;-145.45;100.00;62759.84;5311202;28;20025;-79
2022/05/18 03:08:56;;;;;;;14.10;8.90;;;;;;;-145.45;100.00;62759.84;5311240;27;20044;-79
2022/05/18 03:11:28;;;;;;;16.88;9.52;;;;;;;-145.45;100.00;62759.84;5313525;28;20037;-79
2022/05/18 03:13:59;;;;;;;11.85;8.57;;;;;;;-145.45;100.00;62759.84;5315611;28;20031;-79
2022/05/18 03:16:31;;;;;;;12.98;8.38;;;;;;;-145.45;100.00;62759.84;5292717;28;41867;-79
2022/05/18 03:19:03;;;;;;;13.63;8.93;;;;;;;-145.45;100.00;62759.84;5315843;28;20066;-79
2022/05/18 03:24:24;;;;;;;10.02;7.28;;;;;;;-145.45;100.00;62759.84;5315843;28;20130;-79
2022/05/18 03:26:55;;;;;;;12.60;8.18;;;;;;;-145.45;100.00;62759.84;5316486;28;20171;-79
2022/05/18 03:29:27;;;;;;;11.77;8.43;;;;;;;-145.45;100.00;62759.84;5315242;28;20032;-79
2022/05/18 03:31:58;;;;;;;11.27;7.55;;;;;;;-145.45;100.00;62759.84;5298854;28;20032;-79
2022/05/18 03:34:29;;;;;;;7.97;6.55;;;;;;;-145.45;100.00;62759.84;5308648;28;20151;-79
2022/05/18 03:37:01;;;;;;;10.55;8.07;;;;;;;-145.45;100.00;62759.84;5308459;28;20086;-79
2022/05/18 03:39:32;;;;;;;13.55;9.55;;;;;;;-145.45;100.00;62759.84;5310376;28;20147;-79
2022/05/18 03:42:04;;;;;;;12.45;7.32;;;;;;;-145.45;100.00;62759.84;5312898;28;20032;-79
2022/05/18 03:44:35;;;;;;;13.20;8.30;;;;;;;-145.45;100.00;62759.84;5309137;28;20036;-79
2022/05/18 03:47:07;;;;;;;8.63;7.00;;;;;;;-145.45;100.00;62759.84;5306821;28;20016;-79
2022/05/18 03:49:38;;;;;;;10.52;6.38;;;;;;;-145.45;100.00;62759.84;5289450;28;20063;-79
2022/05/18 03:52:10;;;;;;;9.23;7.57;;;;;;;-145.45;100.00;62759.84;5306043;28;20388;-79
2022/05/18 03:54:41;;;;;;;12.18;7.75;;;;;;;-145.45;100.00;62759.84;5309670;28;20035;-79
2022/05/18 03:57:12;;;;;;;12.63;7.65;;;;;;;-145.45;100.00;62759.84;5301873;28;20034;-78
2022/05/18 03:59:43;;;;;;;8.38;6.88;;;;;;;-145.45;100.00;62759.84;5305889;28;20044;-79
2022/05/18 04:02:15;;;;;;;11.88;7.95;;;;;;;-145.45;100.00;62759.84;5305584;28;20028;-79
2022/05/18 04:04:46;;;;;;;14.15;7.57;;;;;;;-145.45;100.00;62759.84;5307401;28;20155;-79
2022/05/18 04:07:17;;;;;;;13.43;7.85;;;;;;;-145.45;100.00;62759.84;5310740;28;20020;-78
2022/05/18 04:09:50;;;;;;;9.63;6.40;;;;;;;-145.45;100.00;62759.84;5328684;27;20040;-79
2022/05/18 04:12:24;;;;;;;11.60;7.28;;;;;;;-145.45;100.00;62759.84;5334746;27;20050;-78
2022/05/18 04:14:55;;;;;;;7.40;6.70;;;;;;;-145.45;100.00;62759.84;5334316;27;20027;-78
2022/05/18 04:17:27;;;;;;;9.57;6.10;;;;;;;-145.45;100.00;62759.84;5332411;27;20365;-78
2022/05/18 04:19:58;;;;;;;8.65;6.13;;;;;;;-145.45;100.00;62759.84;5330365;27;20062;-78
2022/05/18 04:22:32;;;;;;;8.43;6.28;;;;;;;-145.45;100.00;62759.84;5330803;27;20031;-78
2022/05/18 04:25:04;;;;;;;8.70;5.28;;;;;;;-145.45;100.00;62759.84;5328471;27;20027;-78
2022/05/18 04:27:35;;;;;;;7.05;5.60;;;;;;;-145.45;100.00;62759.84;5327359;27;20455;-78
2022/05/18 04:30:08;;;;;;;6.53;4.78;;;;;;;-145.45;100.00;62759.84;5327199;27;20454;-79
2022/05/18 04:32:39;;;;;;;7.90;4.93;;;;;;;-145.45;100.00;62759.84;5325016;27;20036;-79
2022/05/18 04:35:13;;;;;;;7.25;4.60;;;;;;;-145.45;100.00;62759.84;5326399;27;20030;-79
2022/05/18 04:37:44;;;;;;;11.30;4.97;;;;;;;-145.45;100.00;62759.84;5336246;27;20320;-78
2022/05/18 04:40:16;;;;;;;9.63;5.20;;;;;;;-145.45;100.00;62759.84;5327674;27;20054;-78
2022/05/18 04:42:47;;;;;;;7.97;4.85;;;;;;;-145.45;100.00;62759.84;5329443;27;20081;-78
2022/05/18 04:45:22;;;;;;;7.30;4.88;;;;;;;-145.45;100.00;62759.84;5328051;27;20028;-79
2022/05/18 04:47:53;;;;;;;4.93;4.10;;;;;;;-145.45;100.00;62759.84;5325828;27;20131;-79
2022/05/18 04:50:25;;;;;;;17.08;5.40;;;;;;;-145.45;100.00;62759.84;5328786;27;20023;-79
2022/05/18 04:52:56;;;;;;;9.70;4.60;;;;;;;-145.45;100.00;62759.84;5327292;27;20127;-79
2022/05/18 04:55:27;;;;;;;15.35;5.00;;;;;;;-145.45;100.00;62759.84;5330023;27;20045;-79
2022/05/18 04:58:01;;;;;;;8.45;4.80;;;;;;;-145.45;100.00;62759.84;5328625;27;20027;-79
2022/05/18 05:00:32;;;;;;;11.20;5.22;;;;;;;-145.45;100.00;62759.84;5327830;27;20050;-80
2022/05/18 05:03:04;;;;;;;6.10;4.22;;;;;;;-145.45;100.00;62759.84;5334322;27;20040;-79
2022/05/18 05:05:35;;;;;;;12.95;4.78;;;;;;;-145.45;100.00;62759.84;5332030;27;20024;-79
2022/05/18 05:08:07;;;;;;;10.30;4.70;;;;;;;-145.45;100.00;62759.84;5329309;27;20040;-79
2022/05/18 05:10:38;;;;;;;8.43;4.20;;;;;;;-145.45;100.00;62759.84;5318310;28;20040;-80
2022/05/18 05:13:09;;;;;;;13.93;4.47;;;;;;;-145.45;100.00;62759.84;5310894;28;20043;-80
2022/05/18 05:15:40;;;;;;;9.18;4.60;;;;;;;-145.45;100.00;62759.84;5310265;28;20112;-80
2022/05/18 05:18:12;;;;;;;10.27;4.30;;;;;;;-145.45;100.00;62759.84;5310259;28;20028;-80
2022/05/18 05:20:43;;;;;;;12.60;5.03;;;;;;;-145.45;100.00;62759.84;5313213;28;20025;-80
2022/05/18 05:23:15;;;;;;;14.57;5.45;;;;;;;-145.45;100.00;62759.84;5314747;28;20462;-80
2022/05/18 05:25:47;;;;;;;13.00;4.95;;;;;;;-145.45;100.00;62759.84;5316721;28;20120;-80
2022/05/18 05:28:19;;;;;;;8.48;4.63;;;;;;;-145.45;100.00;62759.84;5313665;28;20074;-79
2022/05/18 05:30:51;;;;;;;12.23;5.03;;;;;;;-145.45;100.00;62759.84;5313023;28;20042;-80
2022/05/18 05:33:22;;;;;;;8.25;4.80;;;;;;;-145.45;100.00;62759.84;5319209;27;20028;-80
2022/05/18 05:35:53;;;;;;;9.63;4.35;;;;;;;-145.45;100.00;62759.84;5318380;27;20435;-80
2022/05/18 05:38:25;;;;;;;13.35;4.80;;;;;;;-145.45;100.00;62759.84;5314148;27;20039;-80
2022/05/18 05:40:59;;;;;;;7.45;4.40;;;;;;;-145.45;100.00;62759.84;5300574;27;20032;-80
2022/05/18 05:43:31;;;;;;;11.38;4.93;;;;;;;-145.45;100.00;62759.84;5318059;27;20476;-80
2022/05/18 05:46:07;;;;;;;10.73;4.53;;;;;;;-145.45;100.00;62759.84;5312015;28;20040;-80
2022/05/18 05:48:38;;;;;;;;;;;;;;;-145.45;100.00;62759.84;5306912;27;20031;-81
2022/05/18 05:51:14;;;;;;;11.50;4.40;;;;;;;-145.45;100.00;62759.84;5315691;27;19916;-80
2022/05/18 05:53:46;;;;;;;9.67;3.83;;;;;;;-145.45;100.00;62759.84;5317067;28;20036;-80
2022/05/18 05:56:18;;;;;;;7.82;3.97;;;;;;;-145.45;100.00;62759.84;5301271;28;20020;-81
2022/05/18 05:58:50;;;;;;;7.88;3.85;;;;;;;-145.45;100.00;62759.84;5316352;28;20035;-80
2022/05/18 06:01:21;;;;;;;8.98;4.55;;;;;;;-145.45;100.00;62759.84;5289293;28;20024;-80
2022/05/18 06:03:53;;;;;;;9.02;4.63;;;;;;;-145.45;100.00;62759.84;5314439;28;20104;-80
2022/05/18 06:06:24;;;;;;;13.02;3.67;;;;;;;-145.45;100.00;62759.84;5319502;28;20157;-81
2022/05/18 06:08:56;;;;;;;9.98;3.95;;;;;;;-145.45;100.00;62759.84;5310778;28;20094;-81
2022/05/18 06:11:27;;;;;;;7.32;3.22;;;;;;;-145.45;100.00;62759.84;5312272;28;20032;-80
2022/05/18 06:13:58;;;;;;;10.52;3.60;;;;;;;-145.45;100.00;62759.84;5313454;28;20369;-80
2022/05/18 06:16:30;;;;;;;11.25;3.78;;;;;;;-145.45;100.00;62759.84;5314805;28;20496;-80
2022/05/18 06:19:01;;;;;;;8.15;3.67;;;;;;;-145.45;100.00;62759.84;5314262;28;20070;-81
2022/05/18 06:21:32;;;;;;;10.55;3.85;;;;;;;-145.45;100.00;62759.84;5301414;28;20028;-80
2022/05/18 06:24:04;;;;;;;15.30;4.30;;;;;;;-145.45;100.00;62759.84;5318596;28;20163;-80
2022/05/18 06:26:36;;;;;;;13.27;4.20;;;;;;;-145.45;100.00;62759.84;5319748;28;20036;-80
2022/05/18 06:29:07;;;;;;;9.18;3.65;;;;;;;-145.45;100.00;62759.84;5315040;28;20024;-80
2022/05/18 06:31:38;;;;;;;19.88;4.38;;;;;;;-145.45;100.00;62759.84;5292081;28;20043;-80
2022/05/18 06:34:10;;;;;;;12.45;3.78;;;;;;;-145.45;100.00;62759.84;5311974;28;20043;-80
2022/05/18 06:36:41;;;;;;;17.77;4.32;;;;;;;-145.45;100.00;62759.84;5313423;28;20453;-80
2022/05/18 06:39:12;;;;;;;14.63;4.50;;;;;;;-145.45;100.00;62759.84;5315318;28;20024;-80
2022/05/18 06:41:46;;;;;;;12.93;3.95;;;;;;;-145.45;100.00;62759.84;5315922;28;20023;-80
2022/05/18 06:44:18;;;;;;;12.25;4.85;;;;;;;-145.45;100.00;62759.84;5315304;27;20048;-81
2022/05/18 06:46:50;;;;;;;13.55;4.68;;;;;;;-145.45;100.00;62759.84;5319141;28;20468;-81
2022/05/18 06:49:22;;;;;;;16.65;4.40;;;;;;;-145.45;100.00;62759.84;5316825;28;20028;-80
2022/05/18 06:51:55;;;;;;;13.88;4.32;;;;;;;-145.45;100.00;62759.84;5311828;28;20033;-81
2022/05/18 06:54:27;;;;;;;13.52;4.57;;;;;;;-145.45;100.00;62759.84;5287543;28;20110;-81
2022/05/18 06:56:58;;;;;;;9.77;4.90;;;;;;;-145.45;100.00;62759.84;5309814;28;20031;-81
2022/05/18 06:59:30;;;;;;;15.18;4.93;;;;;;;-145.45;100.00;62759.84;5327453;28;20050;-80
2022/05/18 07:02:02;;;;;;;15.90;5.20;;;;;;;-145.45;100.00;62759.84;5326925;28;20030;-80
2022/05/18 07:04:34;;;;;;;8.32;5.53;;;;;;;-145.45;100.00;62759.84;5326865;28;20028;-80
2022/05/18 07:07:05;;;;;;;8.27;5.53;;;;;;;-145.45;100.00;62759.84;5309386;28;20492;-80
2022/05/18 07:09:36;;;;;;;12.43;5.68;;;;;;;-145.45;100.00;62759.84;5328979;27;20106;-81
2022/05/18 07:12:09;;;;;;;12.55;6.95;;;;;;;-145.45;100.00;62759.84;5307922;28;20050;-81
2022/05/18 07:14:40;;;;;;;14.60;7.50;;;;;;;-145.45;100.00;62759.84;5304166;28;20025;-81
2022/05/18 07:17:12;;;;;;;14.05;7.32;;;;;;;-145.45;100.00;62759.84;5322449;28;20032;-81
2022/05/18 07:19:43;;;;;;;14.43;8.17;;;;;;;-145.45;100.00;62759.84;5325511;28;41414;-81
2022/05/18 07:22:14;;;;;;;10.30;7.03;;;;;;;-145.45;100.00;62759.84;5323958;28;20286;-81
2022/05/18 07:24:46;;;;;;;12.18;7.38;;;;;;;-145.45;100.00;62759.84;5324843;28;20386;-81
2022/05/18 07:27:17;;;;;;;13.48;6.88;;;;;;;-145.45;100.00;62759.84;5327233;28;20072;-81
2022/05/18 07:29:48;;;;;;;10.82;6.93;;;;;;;-145.45;100.00;62759.84;5326685;28;20028;-80
2022/05/18 07:32:20;;;;;;;12.38;7.25;;;;;;;-145.45;100.00;62759.84;5326067;28;20110;-80
2022/05/18 07:34:51;;;;;;;12.18;7.18;;;;;;;-145.45;100.00;62759.84;5308052;28;20016;-81
2022/05/18 07:37:23;;;;;;;13.65;7.10;;;;;;;-145.45;100.00;62759.84;5327137;28;20023;-81
2022/05/18 07:39:54;;;;;;;12.60;6.60;;;;;;;-145.45;100.00;62759.84;5324604;28;20028;-80
2022/05/18 07:42:26;;;;;;;11.97;6.50;;;;;;;-145.45;100.00;62759.84;5326853;28;20020;-80
2022/05/18 07:44:57;;;;;;;13.57;7.45;;;;;;;-145.45;100.00;62759.84;5326547;28;20274;-80
2022/05/18 07:47:31;;;;;;;28.17;8.00;;;;;;;-145.45;100.00;62759.84;5325476;28;20063;-80
2022/05/18 07:50:03;;;;;;;17.65;8.20;;;;;;;-145.45;100.00;62759.84;5306972;28;20120;-80
2022/05/18 07:52:34;;;;;;;14.10;7.07;;;;;;;-145.45;100.00;62759.84;5294402;28;20413;-80
2022/05/18 07:55:06;;;;;;;11.05;6.88;;;;;;;-145.45;100.00;62759.84;5326656;28;20020;-80
2022/05/18 07:57:37;;;;;;;8.45;5.97;;;;;;;-145.45;100.00;62759.84;5326424;27;20074;-80
2022/05/18 08:00:10;;;;;;;12.55;7.20;;;;;;;-145.45;100.00;62759.84;5326527;28;20454;-80
2022/05/18 08:02:42;;;;;;;12.05;6.65;;;;;;;-145.45;100.00;62759.84;5318082;28;20465;-81
2022/05/18 08:05:13;;;;;;;8.65;6.13;;;;;;;-145.45;100.00;62759.84;5317577;28;20016;-80
2022/05/18 08:07:47;;;;;;;9.52;7.03;;;;;;;-145.45;100.00;62759.84;5308016;27;20031;-80
2022/05/18 08:15:59;;;;;;;12.65;6.65;;;;;;;-145.45;100.00;62759.84;5324901;28;20055;-80
2022/05/18 08:18:31;;;;;;;11.90;6.97;;;;;;;-145.45;100.00;62759.84;5308434;28;20543;-80
2022/05/18 08:21:03;;;;;;;12.23;7.13;;;;;;;-145.45;100.00;62759.84;5287257;28;20322;-80
2022/05/18 08:23:34;;;;;;;14.20;7.30;;;;;;;-145.45;100.00;62759.84;5287040;28;20017;-81
2022/05/18 08:26:06;;;;;;;11.75;7.18;;;;;;;-145.45;100.00;62759.84;5308070;28;20487;-80
2022/05/18 08:28:37;;;;;;;8.10;6.28;;;;;;;-145.45;100.00;62759.84;5326487;28;20031;-80
2022/05/18 08:31:09;;;;;;;7.50;5.72;;;;;;;-145.45;100.00;62759.84;5325642;28;20193;-79
2022/05/18 08:33:40;;;;;;;6.97;5.15;;;;;;;-145.45;100.00;62759.84;5327355;28;20050;-80
2022/05/18 08:36:12;;;;;;;9.48;6.25;;;;;;;-145.45;100.00;62759.84;5322681;28;20039;-81
2022/05/18 08:38:44;;;;;;;8.85;5.13;;;;;;;-145.45;100.00;62759.84;5327721;28;20047;-80
2022/05/18 08:41:22;;;;;;;10.10;5.43;;;;;;;-145.45;100.00;62759.84;5308576;28;20033;-80
2022/05/18 08:43:57;;;;;;;7.65;5.85;;;;;;;-145.45;100.00;62759.84;5327182;28;20021;-79
2022/05/18 08:46:57;;;;;;;9.82;6.13;;;;;;;-145.45;100.00;62759.84;5326939;28;20576;-80
2022/05/18 08:49:42;;;;;;;8.60;5.47;;;;;;;-145.45;100.00;62759.84;5317145;28;20032;-80
2022/05/18 08:52:32;;;;;;;5.47;4.73;;;;;;;-145.45;100.00;62759.84;5286490;28;20040;-80
2022/05/18 08:55:41;;;;;;;7.72;5.00;;;;;;;-145.45;100.00;62759.84;5305073;28;20104;-81
2022/05/18 08:58:18;;;;;;;6.63;4.63;;;;;;;-145.45;100.00;62759.84;5322143;28;20053;-81
2022/05/18 09:00:58;;;;;;;9.35;4.78;;;;;;;-145.45;100.00;62759.84;5324485;28;20031;-81
2022/05/18 09:03:38;;;;;;;5.65;4.82;;;;;;;-145.45;100.00;62759.84;5325824;28;20473;-81
2022/05/18 09:06:26;;;;;;;8.55;5.35;;;;;;;-145.45;100.00;62759.84;5325024;28;20035;-80
2022/05/18 09:12:03;;;;;;;7.03;4.75;;;;;;;-145.45;100.00;62759.84;5324209;28;20445;-81
2022/05/18 09:14:37;;;;;;;7.20;4.70;;;;;;;-145.45;100.00;62759.84;5322314;28;20024;-81
2022/05/18 09:17:43;;;;;;;9.98;4.88;;;;;;;-145.45;100.00;62759.84;5306613;28;20035;-81
2022/05/18 09:20:23;;;;;;;;;;;;;;;-145.45;100.00;62759.84;5325640;28;20020;-81
2022/05/18 09:23:00;;;;;;;8.38;3.58;;;;;;;-145.45;100.00;62759.84;5325031;28;19959;-81
2022/05/18 09:25:43;;;;;;;8.60;3.70;;;;;;;-145.45;100.00;62759.84;5325198;28;20035;-81
2022/05/18 09:28:49;;;;;;;7.63;3.70;;;;;;;-145.45;100.00;62759.84;5304198;28;20028;-81
2022/05/18 09:31:32;;;;;;;3.75;2.20;;;;;;;-145.45;100.00;62759.84;5304169;28;20064;-81
2022/05/18 09:34:33;;;;;;;8.82;3.20;;;;;;;-145.45;100.00;62759.84;5303349;28;20024;-81
2022/05/18 09:37:23;;;;;;;5.53;2.08;;;;;;;-145.45;100.00;62759.84;5286245;28;20054;-81
2022/05/18 09:40:12;;;;;;;4.13;2.10;;;;;;;-145.45;100.00;62759.84;5320595;28;20052;-81
2022/05/18 09:42:49;;;;;;;5.28;2.40;;;;;;;-145.45;100.00;62759.84;5306038;28;20051;-81
2022/05/18 09:45:26;;;;;;;5.55;2.30;;;;;;;-145.45;100.00;62759.84;5324353;28;20074;-81
2022/05/18 09:48:23;;;;;;;4.85;2.17;;;;;;;-145.45;100.00;62759.84;5323553;28;20658;-81
2022/05/18 09:50:56;;;;;;;4.30;1.48;;;;;;;-145.45;100.00;62759.84;5323728;28;20031;-80
2022/05/18 09:53:28;;;;;;;4.97;1.95;;;;;;;-145.45;100.00;62759.84;5307282;28;20017;-81
2022/05/18 09:56:00;;;;;;;8.48;2.15;;;;;;;-145.45;100.00;62759.84;5284732;28;20021;-81
2022/05/18 09:58:42;;;;;;;4.37;1.60;;;;;;;-145.45;100.00;62759.84;5303615;28;20496;-81
2022/05/18 10:09:48;;;;;;;4.88;1.45;;;;;;;-145.45;100.00;62759.84;5323833;27;20048;-81
2022/05/18 10:12:30;;;;;;;2.65;1.08;;;;;;;-145.45;100.00;62759.84;5324287;28;20042;-81
2022/05/18 10:15:05;;;;;;;4.10;1.23;;;;;;;-145.45;100.00;62759.84;5324438;28;20089;-81
2022/05/18 10:17:44;;;;;;;3.55;1.20;;;;;;;-145.45;100.00;62759.84;5324309;28;20021;-81
2022/05/18 10:20:33;;;;;;;2.80;1.10;;;;;;;-145.45;100.00;62759.84;5307782;28;20352;-81
2022/05/18 10:23:25;;;;;;;3.38;1.30;;;;;;;-145.45;100.00;62759.84;5324998;28;20126;-81
2022/05/18 10:25:56;;;;;;;3.08;1.00;;;;;;;-145.45;100.00;62759.84;5327883;28;20103;-81
2022/05/18 10:28:30;;;;;;;4.85;1.20;;;;;;;-145.45;100.00;62759.84;5328793;28;20457;-81
2022/05/18 10:31:07;;;;;;;5.50;1.25;;;;;;;-145.45;100.00;62759.84;5327295;28;20036;-81
2022/05/18 10:33:41;;;;;;;6.00;1.27;;;;;;;-145.45;100.00;62759.84;5327525;28;20451;-81
2022/05/18 10:36:23;;;;;;;3.47;1.30;;;;;;;-145.45;100.00;62759.84;5327636;28;20126;-81
2022/05/18 10:38:57;;;;;;;6.75;1.40;;;;;;;-145.45;100.00;62759.84;5327151;28;20020;-81
2022/05/18 10:41:40;;;;;;;5.53;1.67;;;;;;;-145.45;100.00;62759.84;5309720;28;20028;-81
2022/05/18 10:44:36;;;;;;;5.13;1.80;;;;;;;-145.45;100.00;62759.84;5306795;28;20378;-81
2022/05/18 10:47:20;;;;;;;4.05;1.70;;;;;;;-145.45;100.00;62759.84;5295934;27;20337;-81
2022/05/18 10:50:13;;;;;;;3.38;1.83;;;;;;;-145.45;100.00;62759.84;5305947;28;20024;-81
2022/05/18 10:52:44;;;;;;;4.28;1.90;;;;;;;-145.45;100.00;62759.84;5276224;28;20041;-81
2022/05/18 10:55:22;;;;;;;4.87;1.90;;;;;;;-145.45;100.00;62759.84;5288377;28;20307;-81
2022/05/18 10:58:09;;;;;;;2.75;1.40;;;;;;;-145.45;100.00;62759.84;5305876;28;20029;-81
2022/05/18 11:00:50;;;;;;;4.45;1.90;;;;;;;-145.45;100.00;62759.84;5287765;28;20020;-81
2022/05/18 11:03:46;;;;;;;2.92;1.33;;;;;;;-145.45;100.00;62759.84;5321595;28;20032;-81
2022/05/18 11:06:29;;;;;;;14.32;2.05;;;;;;;-145.45;100.00;62759.84;5308364;28;20038;-81
2022/05/18 11:09:05;;;;;;;4.65;1.90;;;;;;;-145.45;100.00;62759.84;5327337;27;20044;-81
2022/05/18 11:11:55;;;;;;;4.72;1.67;;;;;;;-145.45;100.00;62759.84;5327299;28;20032;-81
2022/05/18 11:15:05;;;;;;;6.00;1.70;;;;;;;-145.45;100.00;62759.84;5315444;28;20375;-81
2022/05/18 11:18:10;;;;;;;3.72;1.60;;;;;;;-145.45;100.00;62759.84;5255804;28;20489;-81
2022/05/18 11:20:45;;;;;;;3.55;2.00;;;;;;;-145.45;100.00;62759.84;5305538;28;20040;-81
2022/05/18 11:23:32;;;;;;;5.95;2.30;;;;;;;-145.45;100.00;62759.84;5306133;28;20457;-81
2022/05/18 11:26:31;;;;;;;3.22;1.63;;;;;;;-145.45;100.00;62759.84;5306072;28;20029;-81
2022/05/18 11:29:31;;;;;;;2.85;1.95;;;;;;;-145.45;100.00;62759.84;5305806;28;20059;-81
2022/05/18 11:32:11;;;;;;;3.53;2.00;;;;;;;-145.45;100.00;62759.84;5306026;28;20439;-81
2022/05/18 11:34:59;;;;;;;4.25;2.20;;;;;;;-145.45;100.00;62759.84;5305977;28;20079;-81
2022/05/18 11:37:45;;;;;;;4.18;2.20;;;;;;;-145.45;100.00;62759.84;5305348;28;20025;-81
2022/05/18 11:40:38;;;;;;;7.15;2.08;;;;;;;-145.45;100.00;62759.84;5306044;28;20031;-81
2022/05/18 11:43:42;;;;;;;5.05;1.70;;;;;;;-145.45;100.00;62759.84;5303952;28;20115;-81
2022/05/18 11:46:50;;;;;;;13.48;2.72;;;;;;;-145.45;100.00;62759.84;5305555;28;20108;-81
2022/05/18 11:49:35;;;;;;;7.97;2.28;;;;;;;-145.45;100.00;62759.84;5305175;28;20082;-81
2022/05/18 11:52:48;;;;;;;6.78;2.05;;;;;;;-145.45;100.00;62759.84;5305715;28;20044;-81
2022/05/18 11:55:36;;;;;;;12.98;2.60;;;;;;;-145.45;100.00;62759.84;5269016;28;20037;-81
2022/05/18 11:58:26;;;;;;;5.03;2.03;;;;;;;-145.45;100.00;62759.84;5305278;28;20019;-80
2022/05/18 12:01:11;;;;;;;6.03;1.95;;;;;;;-145.45;100.00;62759.84;5286589;28;20067;-81
2022/05/18 12:04:03;;;;;;;7.15;2.05;;;;;;;-145.45;100.00;62759.84;5310485;28;20028;-81
2022/05/18 12:07:01;;;;;;;6.53;2.60;;;;;;;-145.45;100.00;62759.84;5286502;28;20093;-81